Time;durP1;ratioP1;P1;durP2;ratioP2;P2;SDS_P1;SDS_P2;PMS_P1;PMS_P2;Temp;Humidity;BMP_temperature;BMP_pressure;BME280_temperature;BME280_humidity;BME280_pressure;Samples;Min_cycle;Max_cycle;Signal;HPM_P1;HPM_P2
2022/07/05 00:01:42;;;;;;;3.95;1.13;;;21.60;59.50;;;;;;5031430;28;20060;-62
2022/07/05 00:04:08;;;;;;;6.43;1.38;;;21.50;59.50;;;;;;5004436;28;20030;-62
2022/07/05 00:06:33;;;;;;;3.92;1.02;;;21.50;59.40;;;;;;5006106;28;20433;-62
2022/07/05 00:08:59;;;;;;;3.95;1.15;;;21.50;59.50;;;;;;5003678;28;20022;-62
2022/07/05 00:11:25;;;;;;;3.58;1.40;;;21.50;59.50;;;;;;5004972;28;20109;-62
2022/07/05 00:13:50;;;;;;;2.17;1.08;;;21.50;59.50;;;;;;5002664;28;20065;-62
2022/07/05 00:16:16;;;;;;;3.60;1.10;;;21.50;59.50;;;;;;5006286;28;20104;-62
2022/07/05 00:18:42;;;;;;;3.70;1.17;;;21.50;59.50;;;;;;5004076;28;20037;-66
2022/07/05 00:21:07;;;;;;;3.85;1.00;;;21.50;59.50;;;;;;5008115;28;20039;-67
2022/07/05 00:23:33;;;;;;;4.50;1.15;;;21.50;59.60;;;;;;5008998;28;20045;-67
2022/07/05 00:25:59;;;;;;;4.18;0.85;;;21.50;59.70;;;;;;5007110;28;20042;-66
2022/07/05 00:28:24;;;;;;;3.33;1.00;;;21.50;59.60;;;;;;5007015;28;20033;-67
2022/07/05 00:30:50;;;;;;;4.32;1.13;;;21.50;59.70;;;;;;5007898;28;20495;-66
2022/07/05 00:33:16;;;;;;;3.33;1.00;;;21.50;59.70;;;;;;5004999;28;20026;-67
2022/07/05 00:35:41;;;;;;;3.50;1.02;;;21.40;59.70;;;;;;5009652;28;20165;-66
2022/07/05 00:38:07;;;;;;;4.65;1.00;;;21.40;59.60;;;;;;5007847;28;20049;-66
2022/07/05 00:40:33;;;;;;;2.70;1.00;;;21.50;59.70;;;;;;5008075;28;20030;-66
2022/07/05 00:42:58;;;;;;;3.85;0.90;;;21.50;59.70;;;;;;5007198;28;20026;-66
2022/07/05 00:45:24;;;;;;;4.20;1.27;;;21.40;59.70;;;;;;5009601;28;20054;-66
2022/07/05 00:47:49;;;;;;;4.65;1.25;;;21.40;59.70;;;;;;5008023;28;20034;-66
2022/07/05 00:50:15;;;;;;;5.13;1.38;;;21.40;59.70;;;;;;5008152;28;20544;-66
2022/07/05 00:52:41;;;;;;;2.50;1.05;;;21.40;59.80;;;;;;5009512;28;20030;-66
2022/07/05 00:55:07;;;;;;;2.70;1.10;;;21.40;59.70;;;;;;5023287;28;20045;-67
2022/07/05 00:57:33;;;;;;;4.28;1.05;;;21.40;59.80;;;;;;5006738;28;20122;-66
2022/07/05 00:59:58;;;;;;;3.88;1.10;;;21.40;59.70;;;;;;5003819;28;20110;-66
2022/07/05 01:02:24;;;;;;;2.83;1.00;;;21.40;59.70;;;;;;5009158;28;20036;-66
2022/07/05 01:04:50;;;;;;;1.92;0.90;;;21.40;59.70;;;;;;5008516;28;20022;-67
2022/07/05 01:07:18;;;;;;;3.97;1.05;;;21.40;59.70;;;;;;5007193;28;20052;-66
2022/07/05 01:09:43;;;;;;;2.85;1.10;;;21.40;59.80;;;;;;5005752;28;20037;-66
2022/07/05 01:12:10;;;;;;;4.70;1.00;;;21.40;59.70;;;;;;5007645;28;20034;-66
2022/07/05 01:14:35;;;;;;;4.32;1.10;;;21.40;59.80;;;;;;5008785;28;20034;-67
2022/07/05 01:17:01;;;;;;;2.72;1.00;;;21.40;59.80;;;;;;5007304;28;20434;-66
2022/07/05 01:19:27;;;;;;;3.08;1.10;;;21.40;59.80;;;;;;5005821;28;20061;-66
2022/07/05 01:21:52;;;;;;;2.97;1.10;;;21.40;59.80;;;;;;5008543;28;20022;-66
2022/07/05 01:24:19;;;;;;;2.88;1.00;;;21.30;59.80;;;;;;5006306;28;20025;-66
2022/07/05 01:26:48;;;;;;;3.47;1.00;;;21.30;59.80;;;;;;5008914;28;20556;-67
2022/07/05 01:29:14;;;;;;;2.55;0.90;;;21.30;60.80;;;;;;5020625;28;20659;-66
2022/07/05 01:31:39;;;;;;;4.35;1.02;;;21.40;59.90;;;;;;5005924;28;20034;-66
2022/07/05 01:34:06;;;;;;;3.40;0.80;;;21.30;59.80;;;;;;5008644;28;20494;-66
2022/07/05 01:36:35;;;;;;;4.03;1.10;;;21.30;59.90;;;;;;5007268;28;20046;-66
2022/07/05 01:39:02;;;;;;;3.55;1.10;;;21.30;59.80;;;;;;5020100;28;20046;-66
2022/07/05 01:41:28;;;;;;;2.67;0.90;;;21.30;59.80;;;;;;5007486;28;20064;-66
2022/07/05 01:43:53;;;;;;;2.33;0.80;;;21.30;59.90;;;;;;5008322;28;20057;-66
2022/07/05 01:46:19;;;;;;;2.60;0.90;;;21.30;59.90;;;;;;5001617;28;20030;-66
2022/07/05 01:48:45;;;;;;;1.20;0.82;;;21.30;59.90;;;;;;5029352;28;20018;-67
2022/07/05 01:51:25;;;;;;;2.35;0.85;;;21.30;60.00;;;;;;5020025;28;20509;-66
2022/07/05 01:53:52;;;;;;;2.53;0.88;;;21.30;60.00;;;;;;5000494;28;20022;-67
2022/07/05 01:56:18;;;;;;;2.38;1.00;;;21.30;60.00;;;;;;5004361;28;20411;-66
2022/07/05 01:58:43;;;;;;;3.72;1.10;;;21.30;60.00;;;;;;5006765;28;20032;-66
2022/07/05 02:01:09;;;;;;;3.38;0.90;;;21.30;60.00;;;;;;5023054;28;20033;-67
2022/07/05 02:03:35;;;;;;;3.38;1.00;;;21.30;60.00;;;;;;5007364;28;20021;-66
2022/07/05 02:06:01;;;;;;;3.72;1.10;;;21.30;60.10;;;;;;5022647;28;20455;-67
2022/07/05 02:08:30;;;;;;;3.00;1.08;;;21.20;59.90;;;;;;5006345;28;20054;-66
2022/07/05 02:10:56;;;;;;;3.17;0.80;;;21.20;60.00;;;;;;5006651;28;20026;-66
2022/07/05 02:13:22;;;;;;;2.13;0.80;;;21.20;60.00;;;;;;5007410;28;20517;-67
2022/07/05 02:15:47;;;;;;;1.10;0.80;;;21.20;60.00;;;;;;5007256;28;20038;-66
2022/07/05 02:18:13;;;;;;;3.13;1.00;;;21.20;60.00;;;;;;5006734;28;20049;-66
2022/07/05 02:20:39;;;;;;;2.42;0.80;;;21.20;60.00;;;;;;5006672;28;20061;-67
2022/07/05 02:23:05;;;;;;;2.80;0.93;;;21.20;60.00;;;;;;5006718;28;20049;-66
2022/07/05 02:25:31;;;;;;;3.00;1.02;;;21.20;60.00;;;;;;5008519;28;20490;-67
2022/07/05 02:27:56;;;;;;;2.75;0.90;;;21.20;60.00;;;;;;5006957;28;20034;-67
2022/07/05 02:30:22;;;;;;;2.05;0.93;;;21.20;60.10;;;;;;5021569;28;20022;-66
2022/07/05 02:32:48;;;;;;;2.38;0.93;;;21.20;60.10;;;;;;5006245;28;20053;-66
2022/07/05 02:35:13;;;;;;;2.63;1.10;;;21.20;60.10;;;;;;5006347;28;20038;-66
2022/07/05 02:37:39;;;;;;;1.38;0.75;;;21.20;60.20;;;;;;5007371;28;20040;-66
2022/07/05 02:40:07;;;;;;;2.85;1.02;;;21.20;60.10;;;;;;5005501;28;20025;-67
2022/07/05 02:42:32;;;;;;;2.03;0.80;;;21.20;60.20;;;;;;5002998;28;20049;-67
2022/07/05 02:44:58;;;;;;;2.25;0.98;;;21.20;60.20;;;;;;5007957;28;20034;-68
2022/07/05 02:47:24;;;;;;;1.88;0.85;;;21.20;60.20;;;;;;5006155;28;20092;-67
2022/07/05 02:49:49;;;;;;;2.35;0.73;;;21.20;60.20;;;;;;5006965;28;20515;-66
2022/07/05 02:52:15;;;;;;;1.77;0.90;;;21.20;60.20;;;;;;5006895;28;20029;-65
2022/07/05 02:54:40;;;;;;;1.52;0.47;;;21.10;60.10;;;;;;5004265;28;20021;-66
2022/07/05 02:57:06;;;;;;;2.30;0.90;;;21.20;60.30;;;;;;5006831;28;20053;-66
2022/07/05 02:59:32;;;;;;;2.17;0.90;;;21.10;60.20;;;;;;5005508;28;20026;-66
2022/07/05 03:01:57;;;;;;;3.70;1.10;;;21.10;60.10;;;;;;5006154;28;20038;-66
2022/07/05 03:04:23;;;;;;;3.15;0.90;;;21.10;60.20;;;;;;5006038;28;20018;-66
2022/07/05 03:06:49;;;;;;;1.50;0.90;;;21.10;60.20;;;;;;5005826;28;20051;-66
2022/07/05 03:09:14;;;;;;;2.20;0.90;;;21.10;60.20;;;;;;5005952;28;20100;-66
2022/07/05 03:11:40;;;;;;;2.35;0.82;;;21.10;60.20;;;;;;5006192;28;20398;-66
2022/07/05 03:14:05;;;;;;;4.05;1.10;;;21.10;60.30;;;;;;5005633;28;20577;-67
2022/07/05 03:16:31;;;;;;;2.25;0.90;;;21.10;60.20;;;;;;5005885;28;20576;-66
2022/07/05 03:18:57;;;;;;;2.42;0.80;;;21.10;60.20;;;;;;5005945;28;20030;-66
2022/07/05 03:21:22;;;;;;;2.13;0.90;;;21.10;60.20;;;;;;5005022;28;20088;-66
2022/07/05 03:23:48;;;;;;;1.63;0.70;;;21.10;60.20;;;;;;5005756;28;20026;-66
2022/07/05 03:26:14;;;;;;;1.55;0.70;;;21.00;60.20;;;;;;5006092;28;20053;-66
2022/07/05 03:28:39;;;;;;;3.00;0.85;;;21.10;60.20;;;;;;5005860;28;20030;-67
2022/07/05 03:31:05;;;;;;;2.58;0.90;;;21.10;60.30;;;;;;5003751;28;20030;-66
2022/07/05 03:33:31;;;;;;;1.98;0.80;;;21.10;60.30;;;;;;5008263;28;20498;-66
2022/07/05 03:35:56;;;;;;;2.70;0.70;;;21.10;60.30;;;;;;5000920;28;20567;-67
2022/07/05 03:38:22;;;;;;;1.48;0.75;;;21.10;61.40;;;;;;5006465;28;20388;-66
2022/07/05 03:40:48;;;;;;;1.35;0.77;;;21.10;60.40;;;;;;5006011;28;20034;-67
2022/07/05 03:43:13;;;;;;;1.48;0.70;;;21.00;60.30;;;;;;5005482;28;20026;-66
2022/07/05 03:45:39;;;;;;;1.40;0.68;;;21.00;60.30;;;;;;5006521;28;20061;-67
2022/07/05 03:48:05;;;;;;;1.20;0.68;;;21.10;60.50;;;;;;5008203;28;20096;-66
2022/07/05 03:50:30;;;;;;;2.40;0.70;;;21.10;60.50;;;;;;5006812;28;20456;-67
2022/07/05 03:52:56;;;;;;;1.40;0.80;;;21.10;60.50;;;;;;5009723;28;20109;-66
2022/07/05 03:55:22;;;;;;;1.33;0.70;;;21.10;60.50;;;;;;5010351;28;20112;-66
2022/07/05 03:57:47;;;;;;;2.10;0.68;;;21.10;60.50;;;;;;5010420;28;20050;-66
2022/07/05 04:00:13;;;;;;;2.22;0.70;;;21.10;60.60;;;;;;5010432;28;20030;-67
2022/07/05 04:02:39;;;;;;;2.33;0.73;;;21.10;60.70;;;;;;5009274;28;20030;-66
2022/07/05 04:05:05;;;;;;;1.52;0.70;;;21.10;60.70;;;;;;5009171;28;20053;-66
2022/07/05 04:07:31;;;;;;;3.15;1.00;;;21.10;60.80;;;;;;5009312;28;20449;-66
2022/07/05 04:09:56;;;;;;;3.17;0.80;;;21.10;60.80;;;;;;5009561;28;20029;-67
2022/07/05 04:12:22;;;;;;;2.88;0.82;;;21.00;60.80;;;;;;5008421;28;20022;-66
2022/07/05 04:14:47;;;;;;;2.28;0.82;;;21.10;60.90;;;;;;5009268;28;20026;-66
2022/07/05 04:17:13;;;;;;;3.20;1.10;;;21.10;61.00;;;;;;5006004;28;20057;-66
2022/07/05 04:19:39;;;;;;;3.17;0.77;;;21.10;61.00;;;;;;5006162;28;20029;-66
2022/07/05 04:22:04;;;;;;;3.13;1.00;;;21.10;61.00;;;;;;5007043;28;20045;-66
2022/07/05 04:24:30;;;;;;;2.90;0.82;;;21.10;61.10;;;;;;5006745;28;20116;-66
2022/07/05 04:26:56;;;;;;;2.63;0.90;;;21.10;61.10;;;;;;5008447;28;20030;-66
2022/07/05 04:29:22;;;;;;;3.92;0.85;;;21.10;61.20;;;;;;5007939;28;20766;-67
2022/07/05 04:31:47;;;;;;;2.03;0.75;;;21.10;61.20;;;;;;5008397;28;20517;-67
2022/07/05 04:34:13;;;;;;;2.20;0.77;;;21.10;61.20;;;;;;5006822;28;20104;-66
2022/07/05 04:36:40;;;;;;;4.63;1.08;;;21.10;61.30;;;;;;5009000;28;20141;-66
2022/07/05 04:39:06;;;;;;;2.38;0.80;;;21.10;61.30;;;;;;5006938;28;20108;-66
2022/07/05 04:41:32;;;;;;;5.43;1.10;;;21.00;61.20;;;;;;5007557;28;20057;-67
2022/07/05 04:43:58;;;;;;;2.28;0.80;;;21.00;62.30;;;;;;5007646;28;20514;-67
2022/07/05 04:46:23;;;;;;;3.78;1.00;;;21.00;61.30;;;;;;5005006;28;20030;-67
2022/07/05 04:48:49;;;;;;;2.50;0.80;;;21.00;61.30;;;;;;5006653;28;20018;-67
2022/07/05 04:51:15;;;;;;;2.92;1.10;;;21.00;61.40;;;;;;5005235;28;20069;-67
2022/07/05 04:53:41;;;;;;;3.25;0.82;;;21.00;61.40;;;;;;5008271;28;20018;-66
2022/07/05 04:56:07;;;;;;;3.30;1.02;;;21.00;62.50;;;;;;5006526;28;20042;-67
2022/07/05 04:58:32;;;;;;;4.47;1.27;;;21.00;61.40;;;;;;5005968;28;20022;-67
2022/07/05 05:00:58;;;;;;;3.85;1.13;;;21.00;61.50;;;;;;5005932;28;20469;-66
2022/07/05 05:03:24;;;;;;;2.08;1.05;;;21.00;61.50;;;;;;5006319;28;20465;-67
2022/07/05 05:05:49;;;;;;;2.70;0.90;;;21.00;61.50;;;;;;5007259;28;20037;-66
2022/07/05 05:08:15;;;;;;;2.13;0.77;;;21.00;61.50;;;;;;5006750;28;20030;-66
2022/07/05 05:10:40;;;;;;;2.08;0.80;;;21.00;61.50;;;;;;5006917;28;20072;-68
2022/07/05 05:13:06;;;;;;;4.38;1.13;;;21.00;61.50;;;;;;5006049;28;20041;-68
2022/07/05 05:15:32;;;;;;;3.70;0.93;;;21.00;61.70;;;;;;5006849;28;20022;-68
2022/07/05 05:17:57;;;;;;;2.65;0.90;;;21.00;61.70;;;;;;5004968;28;20477;-68
2022/07/05 05:20:23;;;;;;;1.40;0.80;;;21.00;61.70;;;;;;5006579;28;20376;-68
2022/07/05 05:22:49;;;;;;;3.20;1.23;;;21.00;61.60;;;;;;5007490;28;20041;-68
2022/07/05 05:25:15;;;;;;;2.88;0.90;;;21.00;61.50;;;;;;5007894;28;20032;-68
2022/07/05 05:27:45;;;;;;;5.25;0.88;;;21.00;61.70;;;;;;5007157;28;20380;-68
2022/07/05 05:30:12;;;;;;;2.35;0.70;;;21.00;63.00;;;;;;5008932;28;20151;-68
2022/07/05 05:32:37;;;;;;;4.90;1.00;;;21.00;62.00;;;;;;5006458;28;20546;-68
2022/07/05 05:35:04;;;;;;;3.28;1.05;;;21.00;62.20;;;;;;5008645;28;20137;-67
2022/07/05 05:37:29;;;;;;;4.07;1.13;;;21.00;62.00;;;;;;5008751;28;20120;-68
2022/07/05 05:39:55;;;;;;;4.32;1.10;;;21.00;62.00;;;;;;5007449;28;20463;-68
2022/07/05 05:42:22;;;;;;;5.43;1.17;;;21.00;62.00;;;;;;5008174;28;20080;-68
2022/07/05 05:44:47;;;;;;;3.45;0.75;;;20.90;61.90;;;;;;5007941;28;20129;-68
2022/07/05 05:47:13;;;;;;;2.03;0.75;;;21.00;62.00;;;;;;5007003;28;20557;-68
2022/07/05 05:49:38;;;;;;;3.20;0.80;;;21.00;62.00;;;;;;5006354;28;20029;-67
2022/07/05 05:52:04;;;;;;;3.25;0.95;;;21.00;62.00;;;;;;5007407;28;20430;-68
2022/07/05 05:54:30;;;;;;;3.35;0.90;;;21.00;62.00;;;;;;5008298;28;20026;-68
2022/07/05 05:56:55;;;;;;;4.07;1.15;;;21.00;61.90;;;;;;5006156;28;20037;-67
2022/07/05 05:59:21;;;;;;;3.30;0.90;;;21.00;62.00;;;;;;5005589;28;20030;-68
2022/07/05 06:01:47;;;;;;;5.70;1.08;;;21.00;62.00;;;;;;5005760;28;20033;-68
2022/07/05 06:04:12;;;;;;;3.83;0.82;;;21.00;62.00;;;;;;5006161;28;20029;-68
2022/07/05 06:06:38;;;;;;;6.07;1.10;;;21.00;61.90;;;;;;5007367;28;20033;-68
2022/07/05 06:09:03;;;;;;;4.93;0.98;;;21.00;62.00;;;;;;5007284;28;20033;-68
2022/07/05 06:11:30;;;;;;;5.35;1.10;;;21.00;62.00;;;;;;5007818;28;20026;-68
2022/07/05 06:13:55;;;;;;;4.55;1.17;;;21.00;62.00;;;;;;5006917;28;20457;-68
2022/07/05 06:16:21;;;;;;;4.30;0.90;;;21.00;62.00;;;;;;5007823;28;20042;-68
2022/07/05 06:18:47;;;;;;;6.97;1.17;;;21.00;62.00;;;;;;5007374;28;20036;-68
2022/07/05 06:21:12;;;;;;;3.05;0.93;;;21.00;62.00;;;;;;5007636;28;20113;-68
2022/07/05 06:23:38;;;;;;;2.50;0.82;;;21.00;62.00;;;;;;5005920;28;20029;-68
2022/07/05 06:26:03;;;;;;;3.90;0.95;;;21.00;62.00;;;;;;5006711;28;20755;-68
2022/07/05 06:28:30;;;;;;;3.10;1.05;;;21.00;62.00;;;;;;5006706;28;20023;-68
2022/07/05 06:30:56;;;;;;;2.70;0.98;;;21.00;62.00;;;;;;5006473;28;20036;-67
2022/07/05 06:33:21;;;;;;;4.95;1.00;;;21.00;62.00;;;;;;5007289;28;20017;-68
2022/07/05 06:35:47;;;;;;;4.53;1.20;;;21.00;62.00;;;;;;5006530;28;20049;-68
2022/07/05 06:38:13;;;;;;;4.13;1.00;;;21.00;62.00;;;;;;5005870;28;20034;-68
2022/07/05 06:40:41;;;;;;;2.63;0.75;;;21.00;61.90;;;;;;5006112;28;20036;-68
2022/07/05 06:43:09;;;;;;;5.75;0.93;;;21.00;62.00;;;;;;5007902;28;20021;-68
2022/07/05 06:45:35;;;;;;;1.90;0.80;;;21.00;62.00;;;;;;5005507;28;20113;-67
2022/07/05 06:48:02;;;;;;;4.20;1.00;;;21.00;62.00;;;;;;5007564;28;20113;-68
2022/07/05 06:50:29;;;;;;;3.38;0.93;;;21.00;62.00;;;;;;5008126;28;20037;-68
2022/07/05 06:52:54;;;;;;;3.67;0.95;;;21.00;62.00;;;;;;5006293;28;20036;-67
2022/07/05 06:55:21;;;;;;;2.42;0.90;;;21.00;62.00;;;;;;5005724;28;20026;-68
2022/07/05 06:57:46;;;;;;;2.40;0.80;;;21.00;62.00;;;;;;5005726;28;20041;-68
2022/07/05 07:00:12;;;;;;;2.80;0.90;;;21.00;62.00;;;;;;5005490;28;20026;-68
2022/07/05 07:02:38;;;;;;;3.47;0.95;;;21.00;62.00;;;;;;5006017;28;20057;-68
2022/07/05 07:05:04;;;;;;;4.55;0.98;;;21.00;62.00;;;;;;5005722;28;20104;-68
2022/07/05 07:10:17;;;;;;;4.55;1.10;;;21.00;62.00;;;;;;5006337;28;20037;-67
2022/07/05 07:12:43;;;;;;;3.72;0.90;;;21.00;62.00;;;;;;5006739;28;20030;-68
2022/07/05 07:15:09;;;;;;;2.58;0.80;;;21.00;62.00;;;;;;5007356;28;20486;-68
2022/07/05 07:17:35;;;;;;;3.35;0.95;;;21.00;62.00;;;;;;5005348;28;20054;-67
2022/07/05 07:20:01;;;;;;;2.92;0.90;;;21.00;62.00;;;;;;5006336;28;20026;-68
2022/07/05 07:22:26;;;;;;;3.17;0.90;;;21.00;61.90;;;;;;5004905;28;20053;-68
2022/07/05 07:24:53;;;;;;;2.88;1.00;;;21.00;61.90;;;;;;5006829;28;20052;-68
2022/07/05 07:27:18;;;;;;;2.20;0.93;;;21.00;61.90;;;;;;5006237;28;20042;-68
2022/07/05 07:29:44;;;;;;;1.75;0.82;;;21.00;61.80;;;;;;5005901;28;20029;-68
2022/07/05 07:32:10;;;;;;;3.88;0.88;;;21.10;61.90;;;;;;5006168;28;20034;-68
2022/07/05 07:34:39;;;;;;;3.35;0.80;;;21.10;61.90;;;;;;5004320;28;20502;-69
2022/07/05 07:37:05;;;;;;;3.53;1.05;;;21.10;61.80;;;;;;5005989;28;20173;-68
2022/07/05 07:39:33;;;;;;;1.45;0.70;;;21.10;61.90;;;;;;5005960;28;20113;-68
2022/07/05 07:41:59;;;;;;;3.38;1.00;;;21.10;61.80;;;;;;5005413;28;20041;-68
2022/07/05 07:44:24;;;;;;;2.50;0.85;;;21.10;61.80;;;;;;5005919;28;20014;-68
2022/07/05 07:46:50;;;;;;;3.05;0.77;;;21.10;61.70;;;;;;5007064;28;20034;-68
2022/07/05 07:49:16;;;;;;;2.15;0.90;;;21.10;61.70;;;;;;5005736;28;20018;-68
2022/07/05 07:51:42;;;;;;;2.78;0.77;;;21.10;61.80;;;;;;5006716;28;20402;-68
2022/07/05 07:54:07;;;;;;;1.77;0.80;;;21.10;61.70;;;;;;5006238;28;20101;-68
2022/07/05 07:56:33;;;;;;;3.13;0.80;;;21.10;61.70;;;;;;5005566;28;20127;-69
2022/07/05 07:58:59;;;;;;;2.00;0.90;;;21.10;61.70;;;;;;5004624;28;20050;-68
2022/07/05 08:01:24;;;;;;;2.80;0.80;;;21.20;61.80;;;;;;5006549;28;20026;-68
2022/07/05 08:03:50;;;;;;;0.95;0.60;;;21.10;61.80;;;;;;5005756;28;20026;-68
2022/07/05 08:06:16;;;;;;;2.83;0.85;;;21.10;61.90;;;;;;5007541;28;20065;-68
2022/07/05 08:08:43;;;;;;;2.42;0.80;;;21.10;61.90;;;;;;5004974;28;20030;-68
2022/07/05 08:11:09;;;;;;;3.97;0.93;;;21.10;61.90;;;;;;5006094;28;20612;-68
2022/07/05 08:13:35;;;;;;;1.95;0.77;;;21.20;61.90;;;;;;5005062;28;20064;-68
2022/07/05 08:16:01;;;;;;;3.55;0.90;;;21.20;61.90;;;;;;5004895;28;20531;-68
2022/07/05 08:23:54;;;;;;;1.45;0.60;;;21.20;61.80;;;;;;5004540;28;20478;-68
2022/07/05 08:26:20;;;;;;;3.95;1.00;;;21.20;61.80;;;;;;5005159;28;20073;-68
2022/07/05 08:28:46;;;;;;;4.55;1.05;;;21.20;61.90;;;;;;5004693;28;20018;-68
2022/07/05 08:31:11;;;;;;;2.40;0.80;;;21.20;62.00;;;;;;5006786;28;20034;-68
2022/07/05 08:33:37;;;;;;;2.22;0.70;;;21.20;62.00;;;;;;5007240;28;20021;-68
2022/07/05 08:36:03;;;;;;;2.08;0.85;;;21.20;61.90;;;;;;5008013;28;20025;-68
2022/07/05 08:38:29;;;;;;;2.03;0.80;;;21.20;61.90;;;;;;5007856;28;20026;-68
2022/07/05 08:40:55;;;;;;;1.90;0.88;;;21.20;61.90;;;;;;5005906;28;20026;-68
2022/07/05 08:43:21;;;;;;;2.30;0.77;;;21.30;61.90;;;;;;5007772;28;20530;-68
2022/07/05 08:45:47;;;;;;;3.33;0.98;;;21.20;61.80;;;;;;5003896;28;20516;-68
2022/07/05 08:48:14;;;;;;;2.17;0.77;;;21.30;61.90;;;;;;5033039;28;20117;-68
2022/07/05 08:50:40;;;;;;;2.20;0.80;;;21.30;61.90;;;;;;5003779;28;20028;-68
2022/07/05 08:53:06;;;;;;;1.77;0.77;;;21.30;61.90;;;;;;5008481;28;20399;-68
2022/07/05 08:55:34;;;;;;;2.08;1.02;;;21.30;61.90;;;;;;5008826;28;20018;-68
2022/07/05 08:58:00;;;;;;;4.72;0.80;;;21.30;62.10;;;;;;5006912;28;20058;-68
2022/07/05 09:00:26;;;;;;;3.13;0.93;;;21.30;61.90;;;;;;5006369;28;20172;-68
2022/07/05 09:02:51;;;;;;;3.58;0.70;;;21.30;62.00;;;;;;4990091;28;20041;-68
2022/07/05 09:05:18;;;;;;;1.77;0.70;;;21.30;62.00;;;;;;5008196;28;20434;-68
2022/07/05 09:07:48;;;;;;;3.42;0.90;;;21.30;61.90;;;;;;5009406;28;20390;-68
2022/07/05 09:10:13;;;;;;;2.47;0.73;;;21.30;62.00;;;;;;5023636;28;20026;-68
2022/07/05 09:12:39;;;;;;;3.97;1.20;;;21.30;61.90;;;;;;5019304;28;20026;-68
2022/07/05 09:15:05;;;;;;;1.73;0.63;;;21.40;61.90;;;;;;5009551;28;20026;-68
2022/07/05 09:17:31;;;;;;;2.03;0.80;;;21.30;61.80;;;;;;5009373;28;20046;-68
2022/07/05 09:20:11;;;;;;;2.13;0.70;;;21.40;62.00;;;;;;5008882;28;20087;-68
2022/07/05 09:22:47;;;;;;;1.15;0.55;;;21.40;62.00;;;;;;5008356;28;20041;-68
2022/07/05 09:25:31;;;;;;;2.30;0.70;;;21.40;62.00;;;;;;5005081;28;20030;-68
2022/07/05 09:28:02;;;;;;;2.53;0.77;;;21.40;62.00;;;;;;5005898;28;20026;-68
2022/07/05 09:30:32;;;;;;;1.27;0.70;;;21.40;62.00;;;;;;5007436;28;20041;-68
2022/07/05 09:33:04;;;;;;;1.17;0.52;;;21.40;61.90;;;;;;5007110;28;20113;-67
2022/07/05 09:35:34;;;;;;;2.08;0.80;;;21.40;61.80;;;;;;5006991;28;20034;-68
2022/07/05 09:38:02;;;;;;;2.17;0.82;;;21.40;62.00;;;;;;5007550;28;20049;-67
2022/07/05 09:40:32;;;;;;;1.38;0.73;;;21.40;61.90;;;;;;5006345;28;20042;-68
2022/07/05 09:43:11;;;;;;;1.65;0.88;;;21.40;61.80;;;;;;4988726;28;20038;-68
2022/07/05 09:45:36;;;;;;;2.67;0.80;;;21.50;61.90;;;;;;5006018;28;20033;-67
2022/07/05 09:48:04;;;;;;;2.38;0.80;;;21.40;61.80;;;;;;5006735;28;20084;-68
2022/07/05 09:50:36;;;;;;;2.00;0.68;;;21.50;61.80;;;;;;5003289;28;20034;-68
2022/07/05 09:53:02;;;;;;;2.45;0.63;;;21.50;62.80;;;;;;5004793;28;20026;-67
2022/07/05 09:55:28;;;;;;;2.15;0.70;;;21.50;61.80;;;;;;5007277;28;20689;-68
2022/07/05 09:57:54;;;;;;;2.33;0.73;;;21.50;61.80;;;;;;5018885;28;20042;-68
2022/07/05 10:00:23;;;;;;;2.03;0.80;;;21.50;61.80;;;;;;5006340;28;20109;-67
2022/07/05 10:02:55;;;;;;;2.42;0.73;;;21.60;61.70;;;;;;5006407;28;20054;-68
2022/07/05 10:05:25;;;;;;;1.38;0.73;;;21.60;61.80;;;;;;5006134;28;20109;-68
2022/07/05 10:07:52;;;;;;;2.25;0.57;;;21.60;61.70;;;;;;5006820;28;20033;-68
2022/07/05 10:10:25;;;;;;;2.00;0.70;;;21.60;61.60;;;;;;5003115;28;20029;-68
2022/07/05 10:12:51;;;;;;;1.50;0.68;;;21.70;61.60;;;;;;5008142;28;20018;-68
2022/07/05 10:15:21;;;;;;;1.40;0.75;;;21.70;61.60;;;;;;5007501;28;20033;-68
2022/07/05 10:18:00;;;;;;;1.80;0.70;;;21.70;61.60;;;;;;5006151;28;20088;-68
2022/07/05 10:20:33;;;;;;;1.23;0.60;;;21.70;61.60;;;;;;5007077;28;20076;-68
2022/07/05 10:22:58;;;;;;;1.48;0.65;;;21.70;61.60;;;;;;5019900;28;20088;-68
2022/07/05 10:25:24;;;;;;;1.17;0.65;;;21.70;61.60;;;;;;5006255;28;20025;-68
2022/07/05 10:27:53;;;;;;;1.63;0.60;;;21.70;61.60;;;;;;4988817;28;20450;-68
2022/07/05 10:30:19;;;;;;;2.80;0.80;;;21.70;61.50;;;;;;5004109;28;20074;-67
2022/07/05 10:32:45;;;;;;;2.90;0.63;;;21.70;61.60;;;;;;4990635;28;20457;-68
2022/07/05 10:35:11;;;;;;;1.38;0.60;;;21.80;61.60;;;;;;5032769;28;20041;-69
2022/07/05 10:37:36;;;;;;;1.98;0.65;;;21.70;61.60;;;;;;5006043;28;20415;-68
2022/07/05 10:40:04;;;;;;;2.05;0.85;;;21.80;61.60;;;;;;5004929;28;20493;-70
2022/07/05 10:42:56;;;;;;;2.53;0.80;;;21.80;61.50;;;;;;5005943;28;20032;-70
2022/07/05 10:45:23;;;;;;;1.95;0.77;;;21.80;61.40;;;;;;4989811;28;20534;-70
2022/07/05 10:48:11;;;;;;;1.98;0.80;;;21.80;61.50;;;;;;5007059;28;20021;-70
2022/07/05 10:50:43;;;;;;;1.23;0.60;;;21.80;61.40;;;;;;5006745;28;20398;-70
2022/07/05 10:53:08;;;;;;;1.08;0.60;;;21.80;61.50;;;;;;5006121;28;20038;-70
2022/07/05 10:55:46;;;;;;;1.92;0.80;;;21.80;61.40;;;;;;5006288;28;20018;-70
2022/07/05 10:58:36;;;;;;;1.63;0.70;;;21.90;61.40;;;;;;5003980;28;20458;-70
2022/07/05 11:01:20;;;;;;;1.67;0.68;;;21.90;61.40;;;;;;5002543;28;20069;-69
2022/07/05 11:03:55;;;;;;;1.42;0.73;;;21.90;61.40;;;;;;5008233;28;20030;-70
2022/07/05 11:06:21;;;;;;;1.05;0.60;;;21.90;61.40;;;;;;5005346;28;20064;-70
2022/07/05 11:08:59;;;;;;;1.75;0.65;;;21.90;61.50;;;;;;5004237;28;20022;-70
2022/07/05 11:11:26;;;;;;;1.65;0.50;;;21.90;61.50;;;;;;5006956;28;20036;-70
2022/07/05 11:13:54;;;;;;;1.15;0.70;;;21.90;61.50;;;;;;5006143;28;20072;-70
2022/07/05 11:16:24;;;;;;;1.13;0.73;;;21.90;61.50;;;;;;5004975;28;20054;-69
2022/07/05 11:18:51;;;;;;;1.23;0.65;;;21.90;61.40;;;;;;5003003;28;20515;-70
2022/07/05 11:21:22;;;;;;;1.50;0.70;;;21.90;61.40;;;;;;5004654;28;20030;-70
2022/07/05 11:23:48;;;;;;;1.75;0.70;;;22.00;61.60;;;;;;5004877;28;20022;-69
2022/07/05 11:26:16;;;;;;;1.27;0.70;;;21.90;61.50;;;;;;5005528;28;20036;-70
2022/07/05 11:28:46;;;;;;;1.80;0.70;;;21.90;61.40;;;;;;5020861;28;20522;-69
2022/07/05 11:31:13;;;;;;;1.77;0.60;;;22.00;61.60;;;;;;5005029;28;20026;-70
2022/07/05 11:33:40;;;;;;;1.05;0.60;;;22.00;61.40;;;;;;5001414;28;20604;-69
2022/07/05 11:36:32;;;;;;;0.93;0.52;;;22.00;61.50;;;;;;5006050;28;20453;-70
2022/07/05 11:39:20;;;;;;;2.58;0.80;;;22.00;61.60;;;;;;5003292;28;20124;-69
2022/07/05 11:41:49;;;;;;;1.73;0.80;;;22.00;61.40;;;;;;5003598;28;20583;-70
2022/07/05 11:44:14;;;;;;;2.53;0.88;;;22.00;61.40;;;;;;5006694;28;20029;-69
2022/07/05 11:46:41;;;;;;;1.92;0.60;;;22.00;61.40;;;;;;5005756;28;20088;-69
2022/07/05 11:49:07;;;;;;;2.13;0.70;;;22.00;61.40;;;;;;5005189;28;20038;-69
2022/07/05 11:51:33;;;;;;;3.22;0.80;;;22.10;61.50;;;;;;5006093;28;20096;-70
2022/07/05 11:53:58;;;;;;;1.88;0.70;;;22.00;61.40;;;;;;5006246;28;20026;-70
2022/07/05 11:56:24;;;;;;;3.20;0.63;;;22.10;61.40;;;;;;5006236;28;20049;-69
2022/07/05 11:58:50;;;;;;;1.40;0.60;;;22.10;61.50;;;;;;5002183;28;20026;-69
2022/07/05 12:01:15;;;;;;;1.33;0.70;;;22.10;61.50;;;;;;5006807;28;20069;-70
2022/07/05 12:03:51;;;;;;;2.00;0.88;;;22.10;61.50;;;;;;5006798;28;20029;-70
2022/07/05 12:06:17;;;;;;;2.50;0.80;;;22.10;61.50;;;;;;5005890;28;20076;-69
2022/07/05 12:08:43;;;;;;;1.25;0.60;;;22.10;61.30;;;;;;5008660;28;20026;-70
2022/07/05 12:13:56;;;;;;;1.48;0.70;;;22.20;61.30;;;;;;5008611;28;20032;-70
2022/07/05 12:16:21;;;;;;;1.35;0.60;;;22.20;61.30;;;;;;5007640;28;20046;-70
2022/07/05 12:18:58;;;;;;;3.45;0.77;;;22.20;61.20;;;;;;5010018;28;20117;-69
2022/07/05 12:21:24;;;;;;;1.58;0.60;;;22.30;61.20;;;;;;5008149;28;20036;-69
2022/07/05 12:23:50;;;;;;;1.13;0.63;;;22.20;61.10;;;;;;5008876;28;20029;-70
2022/07/05 12:26:16;;;;;;;1.95;0.70;;;22.30;61.20;;;;;;5008654;28;20034;-69
2022/07/05 12:28:42;;;;;;;2.53;0.65;;;22.20;61.10;;;;;;5010484;28;20022;-70
2022/07/05 12:31:18;;;;;;;2.00;0.70;;;22.30;61.10;;;;;;5021953;28;20032;-70
2022/07/05 12:33:44;;;;;;;2.35;0.85;;;22.30;61.10;;;;;;5003660;28;20038;-70
2022/07/05 12:36:17;;;;;;;1.42;0.73;;;22.30;61.10;;;;;;5008802;28;20509;-70
2022/07/05 12:38:43;;;;;;;1.38;0.80;;;22.30;61.10;;;;;;5008295;28;20044;-70
2022/07/05 12:41:09;;;;;;;1.73;0.70;;;22.30;61.00;;;;;;5008823;28;20034;-70
2022/07/05 12:43:48;;;;;;;1.85;0.50;;;22.30;60.90;;;;;;5009195;28;20129;-70
2022/07/05 12:46:14;;;;;;;1.67;0.70;;;22.40;61.00;;;;;;5009335;28;20184;-70
2022/07/05 12:48:40;;;;;;;1.75;0.80;;;22.40;61.00;;;;;;5008384;28;20166;-70
2022/07/05 12:51:06;;;;;;;2.25;0.77;;;22.40;60.90;;;;;;5008536;28;20115;-70
2022/07/05 12:59:02;;;;;;;0.70;0.60;;;22.50;60.90;;;;;;5015984;28;20064;-69
2022/07/05 13:01:29;;;;;;;3.17;0.80;;;22.50;60.80;;;;;;5007271;28;20026;-70
2022/07/05 13:04:11;;;;;;;2.13;0.60;;;22.50;60.70;;;;;;5006629;28;20061;-70